sensor_id;sensor_type;location;lat;lon;timestamp;P1;durP1;ratioP1;P2;durP2;ratioP2
70301;SDS011;57706;56.326;43.882;2022-07-29T06:12:28;66.70;;;14.50;;
70301;SDS011;57706;56.326;43.882;2022-07-29T06:14:54;19.52;;;10.35;;
70301;SDS011;57706;56.326;43.882;2022-07-29T06:17:20;16.17;;;9.75;;
70301;SDS011;57706;56.326;43.882;2022-07-29T06:19:46;22.48;;;13.10;;
70301;SDS011;57706;56.326;43.882;2022-07-29T06:22:12;24.02;;;15.13;;
70301;SDS011;57706;56.326;43.882;2022-07-29T06:24:41;41.17;;;18.27;;
70301;SDS011;57706;56.326;43.882;2022-07-29T06:27:09;28.50;;;16.90;;
70301;SDS011;57706;56.326;43.882;2022-07-29T06:29:36;28.92;;;15.32;;
70301;SDS011;57706;56.326;43.882;2022-07-29T06:32:02;34.22;;;16.65;;
70301;SDS011;57706;56.326;43.882;2022-07-29T06:34:28;55.88;;;20.95;;
70301;SDS011;57706;56.326;43.882;2022-07-29T06:36:54;29.08;;;16.30;;
70301;SDS011;57706;56.326;43.882;2022-07-29T06:39:20;19.15;;;13.15;;
70301;SDS011;57706;56.326;43.882;2022-07-29T06:41:49;23.77;;;13.52;;
70301;SDS011;57706;56.326;43.882;2022-07-29T06:44:16;41.63;;;19.50;;
70301;SDS011;57706;56.326;43.882;2022-07-29T06:47:01;26.05;;;17.05;;
70301;SDS011;57706;56.326;43.882;2022-07-29T06:49:46;41.28;;;19.70;;
70301;SDS011;57706;56.326;43.882;2022-07-29T06:52:31;27.58;;;16.60;;
70301;SDS011;57706;56.326;43.882;2022-07-29T06:54:56;34.53;;;18.83;;
70301;SDS011;57706;56.326;43.882;2022-07-29T06:57:22;31.00;;;17.52;;
70301;SDS011;57706;56.326;43.882;2022-07-29T06:59:48;44.92;;;19.23;;
70301;SDS011;57706;56.326;43.882;2022-07-29T07:02:14;33.92;;;17.65;;
70301;SDS011;57706;56.326;43.882;2022-07-29T07:04:40;46.50;;;21.65;;
70301;SDS011;57706;56.326;43.882;2022-07-29T07:07:06;36.88;;;18.88;;
70301;SDS011;57706;56.326;43.882;2022-07-29T07:09:31;33.45;;;18.27;;
70301;SDS011;57706;56.326;43.882;2022-07-29T07:11:57;35.22;;;18.02;;
70301;SDS011;57706;56.326;43.882;2022-07-29T07:14:42;39.35;;;19.42;;
70301;SDS011;57706;56.326;43.882;2022-07-29T07:17:08;31.23;;;17.77;;
70301;SDS011;57706;56.326;43.882;2022-07-29T07:19:34;19.90;;;14.45;;
70301;SDS011;57706;56.326;43.882;2022-07-29T07:22:18;24.17;;;14.05;;
70301;SDS011;57706;56.326;43.882;2022-07-29T07:24:44;34.55;;;20.20;;
70301;SDS011;57706;56.326;43.882;2022-07-29T07:27:10;40.28;;;22.13;;
70301;SDS011;57706;56.326;43.882;2022-07-29T07:29:35;33.65;;;20.17;;
70301;SDS011;57706;56.326;43.882;2022-07-29T07:32:01;34.10;;;19.88;;
70301;SDS011;57706;56.326;43.882;2022-07-29T07:34:27;31.77;;;19.38;;
70301;SDS011;57706;56.326;43.882;2022-07-29T07:36:55;33.30;;;20.50;;
70301;SDS011;57706;56.326;43.882;2022-07-29T07:39:21;34.25;;;20.60;;
70301;SDS011;57706;56.326;43.882;2022-07-29T07:41:46;33.10;;;20.45;;
70301;SDS011;57706;56.326;43.882;2022-07-29T07:44:12;41.45;;;22.38;;
70301;SDS011;57706;56.326;43.882;2022-07-29T07:46:38;39.95;;;22.80;;
70301;SDS011;57706;56.326;43.882;2022-07-29T07:49:04;32.95;;;20.42;;
70301;SDS011;57706;56.326;43.882;2022-07-29T07:51:30;40.28;;;23.80;;
70301;SDS011;57706;56.326;43.882;2022-07-29T07:53:55;41.38;;;23.92;;
70301;SDS011;57706;56.326;43.882;2022-07-29T07:56:21;52.50;;;24.58;;
70301;SDS011;57706;56.326;43.882;2022-07-29T07:58:47;38.90;;;23.60;;
70301;SDS011;57706;56.326;43.882;2022-07-29T08:01:13;36.33;;;22.25;;
70301;SDS011;57706;56.326;43.882;2022-07-29T08:03:39;44.70;;;24.30;;
70301;SDS011;57706;56.326;43.882;2022-07-29T08:06:05;35.05;;;22.35;;
70301;SDS011;57706;56.326;43.882;2022-07-29T08:08:31;32.88;;;18.80;;
70301;SDS011;57706;56.326;43.882;2022-07-29T08:10:57;34.00;;;20.55;;
70301;SDS011;57706;56.326;43.882;2022-07-29T08:13:25;32.88;;;21.02;;
70301;SDS011;57706;56.326;43.882;2022-07-29T08:15:55;33.28;;;19.92;;
70301;SDS011;57706;56.326;43.882;2022-07-29T08:18:36;28.95;;;18.60;;
70301;SDS011;57706;56.326;43.882;2022-07-29T08:21:20;25.17;;;14.85;;
70301;SDS011;57706;56.326;43.882;2022-07-29T08:23:46;24.15;;;16.17;;
70301;SDS011;57706;56.326;43.882;2022-07-29T08:26:14;24.55;;;16.83;;
70301;SDS011;57706;56.326;43.882;2022-07-29T08:28:41;25.10;;;17.65;;
70301;SDS011;57706;56.326;43.882;2022-07-29T08:31:11;26.90;;;17.45;;
70301;SDS011;57706;56.326;43.882;2022-07-29T08:33:37;23.63;;;16.98;;
70301;SDS011;57706;56.326;43.882;2022-07-29T08:36:04;28.40;;;19.08;;
70301;SDS011;57706;56.326;43.882;2022-07-29T08:38:31;27.67;;;18.73;;
70301;SDS011;57706;56.326;43.882;2022-07-29T08:40:58;27.98;;;17.83;;
70301;SDS011;57706;56.326;43.882;2022-07-29T08:43:25;29.52;;;18.90;;
70301;SDS011;57706;56.326;43.882;2022-07-29T08:45:51;33.70;;;19.33;;
70301;SDS011;57706;56.326;43.882;2022-07-29T08:48:18;29.63;;;19.67;;
70301;SDS011;57706;56.326;43.882;2022-07-29T08:50:45;24.65;;;17.15;;
70301;SDS011;57706;56.326;43.882;2022-07-29T08:53:14;28.02;;;17.58;;
70301;SDS011;57706;56.326;43.882;2022-07-29T08:55:45;25.63;;;18.10;;
70301;SDS011;57706;56.326;43.882;2022-07-29T08:58:13;26.98;;;16.50;;
70301;SDS011;57706;56.326;43.882;2022-07-29T09:00:43;17.60;;;14.25;;
70301;SDS011;57706;56.326;43.882;2022-07-29T09:03:30;16.30;;;13.30;;
70301;SDS011;57706;56.326;43.882;2022-07-29T09:05:58;18.08;;;14.00;;
70301;SDS011;57706;56.326;43.882;2022-07-29T09:08:24;17.13;;;13.32;;
70301;SDS011;57706;56.326;43.882;2022-07-29T09:10:51;17.55;;;12.98;;
70301;SDS011;57706;56.326;43.882;2022-07-29T09:13:17;15.50;;;10.65;;
70301;SDS011;57706;56.326;43.882;2022-07-29T09:15:43;15.77;;;11.63;;
70301;SDS011;57706;56.326;43.882;2022-07-29T09:18:10;13.07;;;11.18;;
70301;SDS011;57706;56.326;43.882;2022-07-29T09:20:36;15.48;;;11.35;;
70301;SDS011;57706;56.326;43.882;2022-07-29T09:23:20;15.63;;;10.27;;
70301;SDS011;57706;56.326;43.882;2022-07-29T09:25:47;11.82;;;10.27;;
70301;SDS011;57706;56.326;43.882;2022-07-29T09:28:13;13.77;;;10.25;;
70301;SDS011;57706;56.326;43.882;2022-07-29T09:30:57;12.20;;;9.13;;
70301;SDS011;57706;56.326;43.882;2022-07-29T09:33:30;12.07;;;9.70;;
70301;SDS011;57706;56.326;43.882;2022-07-29T09:36:02;15.68;;;9.48;;
70301;SDS011;57706;56.326;43.882;2022-07-29T09:38:34;11.95;;;9.43;;
70301;SDS011;57706;56.326;43.882;2022-07-29T09:41:01;11.70;;;10.32;;
70301;SDS011;57706;56.326;43.882;2022-07-29T09:43:28;10.75;;;8.65;;
70301;SDS011;57706;56.326;43.882;2022-07-29T09:45:54;10.85;;;9.05;;
70301;SDS011;57706;56.326;43.882;2022-07-29T09:48:24;9.63;;;8.68;;
70301;SDS011;57706;56.326;43.882;2022-07-29T09:51:18;10.65;;;9.13;;
70301;SDS011;57706;56.326;43.882;2022-07-29T09:54:22;11.02;;;9.90;;
70301;SDS011;57706;56.326;43.882;2022-07-29T09:56:49;9.85;;;8.30;;
70301;SDS011;57706;56.326;43.882;2022-07-29T09:59:15;11.40;;;10.02;;
70301;SDS011;57706;56.326;43.882;2022-07-29T10:01:41;10.15;;;9.15;;
70301;SDS011;57706;56.326;43.882;2022-07-29T10:04:07;11.93;;;9.85;;
70301;SDS011;57706;56.326;43.882;2022-07-29T10:06:33;9.05;;;7.53;;
70301;SDS011;57706;56.326;43.882;2022-07-29T10:09:08;10.38;;;9.32;;
70301;SDS011;57706;56.326;43.882;2022-07-29T10:11:35;10.30;;;9.07;;
70301;SDS011;57706;56.326;43.882;2022-07-29T10:14:02;11.32;;;10.20;;
70301;SDS011;57706;56.326;43.882;2022-07-29T10:16:29;10.27;;;9.27;;
70301;SDS011;57706;56.326;43.882;2022-07-29T10:19:00;9.68;;;8.20;;
70301;SDS011;57706;56.326;43.882;2022-07-29T10:21:27;10.65;;;9.55;;
70301;SDS011;57706;56.326;43.882;2022-07-29T10:23:54;11.30;;;9.15;;
70301;SDS011;57706;56.326;43.882;2022-07-29T10:26:22;10.23;;;8.93;;
70301;SDS011;57706;56.326;43.882;2022-07-29T10:28:48;9.82;;;8.82;;
70301;SDS011;57706;56.326;43.882;2022-07-29T10:31:18;12.85;;;9.32;;
70301;SDS011;57706;56.326;43.882;2022-07-29T10:34:02;11.93;;;10.68;;
70301;SDS011;57706;56.326;43.882;2022-07-29T10:37:03;13.73;;;10.52;;
70301;SDS011;57706;56.326;43.882;2022-07-29T10:39:54;15.15;;;12.30;;
70301;SDS011;57706;56.326;43.882;2022-07-29T10:42:51;14.52;;;12.35;;
70301;SDS011;57706;56.326;43.882;2022-07-29T10:45:18;15.00;;;12.60;;
70301;SDS011;57706;56.326;43.882;2022-07-29T10:47:44;13.70;;;11.10;;
70301;SDS011;57706;56.326;43.882;2022-07-29T10:50:10;11.23;;;9.82;;
70301;SDS011;57706;56.326;43.882;2022-07-29T10:55:30;14.23;;;12.73;;
70301;SDS011;57706;56.326;43.882;2022-07-29T11:00:39;16.95;;;13.93;;
70301;SDS011;57706;56.326;43.882;2022-07-29T11:03:04;14.55;;;13.05;;
70301;SDS011;57706;56.326;43.882;2022-07-29T11:05:30;17.05;;;13.18;;
70301;SDS011;57706;56.326;43.882;2022-07-29T11:08:18;15.88;;;14.13;;
70301;SDS011;57706;56.326;43.882;2022-07-29T11:13:45;16.23;;;14.50;;
70301;SDS011;57706;56.326;43.882;2022-07-29T11:16:13;15.77;;;13.77;;
70301;SDS011;57706;56.326;43.882;2022-07-29T11:21:37;16.77;;;15.07;;
70301;SDS011;57706;56.326;43.882;2022-07-29T11:24:17;18.67;;;15.23;;
70301;SDS011;57706;56.326;43.882;2022-07-29T11:29:32;20.13;;;16.63;;
70301;SDS011;57706;56.326;43.882;2022-07-29T11:32:11;20.65;;;17.38;;
70301;SDS011;57706;56.326;43.882;2022-07-29T11:34:40;23.00;;;17.00;;
70301;SDS011;57706;56.326;43.882;2022-07-29T11:39:39;23.23;;;17.98;;
70301;SDS011;57706;56.326;43.882;2022-07-29T11:44:58;15.40;;;13.25;;
70301;SDS011;57706;56.326;43.882;2022-07-29T11:47:25;19.33;;;15.82;;
70301;SDS011;57706;56.326;43.882;2022-07-29T11:49:54;21.70;;;16.25;;
70301;SDS011;57706;56.326;43.882;2022-07-29T11:52:22;20.30;;;16.67;;
70301;SDS011;57706;56.326;43.882;2022-07-29T11:54:49;23.52;;;17.95;;
70301;SDS011;57706;56.326;43.882;2022-07-29T11:57:17;24.02;;;18.10;;
70301;SDS011;57706;56.326;43.882;2022-07-29T11:59:44;21.73;;;16.23;;
70301;SDS011;57706;56.326;43.882;2022-07-29T12:02:12;25.55;;;19.23;;
70301;SDS011;57706;56.326;43.882;2022-07-29T12:04:53;23.38;;;18.35;;
70301;SDS011;57706;56.326;43.882;2022-07-29T12:07:30;21.75;;;17.60;;
70301;SDS011;57706;56.326;43.882;2022-07-29T12:09:56;22.27;;;17.83;;
70301;SDS011;57706;56.326;43.882;2022-07-29T12:12:22;22.95;;;19.55;;
70301;SDS011;57706;56.326;43.882;2022-07-29T12:14:49;25.58;;;21.58;;
70301;SDS011;57706;56.326;43.882;2022-07-29T12:17:28;25.52;;;20.60;;
70301;SDS011;57706;56.326;43.882;2022-07-29T12:20:02;22.73;;;18.35;;
70301;SDS011;57706;56.326;43.882;2022-07-29T12:22:32;20.30;;;17.42;;
70301;SDS011;57706;56.326;43.882;2022-07-29T12:25:03;20.70;;;17.83;;
70301;SDS011;57706;56.326;43.882;2022-07-29T12:27:59;21.75;;;17.23;;
70301;SDS011;57706;56.326;43.882;2022-07-29T12:33:12;22.42;;;16.52;;
70301;SDS011;57706;56.326;43.882;2022-07-29T12:35:39;19.58;;;16.60;;
70301;SDS011;57706;56.326;43.882;2022-07-29T12:38:08;22.05;;;16.33;;
70301;SDS011;57706;56.326;43.882;2022-07-29T12:40:35;20.80;;;16.23;;
70301;SDS011;57706;56.326;43.882;2022-07-29T12:45:50;21.77;;;15.30;;
70301;SDS011;57706;56.326;43.882;2022-07-29T12:48:38;26.98;;;15.45;;
70301;SDS011;57706;56.326;43.882;2022-07-29T12:51:06;20.60;;;16.20;;
70301;SDS011;57706;56.326;43.882;2022-07-29T12:53:34;18.05;;;14.85;;
70301;SDS011;57706;56.326;43.882;2022-07-29T12:56:00;20.35;;;15.05;;
70301;SDS011;57706;56.326;43.882;2022-07-29T13:01:01;17.90;;;14.88;;
70301;SDS011;57706;56.326;43.882;2022-07-29T13:03:43;19.48;;;14.70;;
70301;SDS011;57706;56.326;43.882;2022-07-29T13:06:30;15.63;;;13.68;;
70301;SDS011;57706;56.326;43.882;2022-07-29T13:12:01;15.43;;;12.32;;
70301;SDS011;57706;56.326;43.882;2022-07-29T13:17:03;15.32;;;12.45;;
70301;SDS011;57706;56.326;43.882;2022-07-29T13:19:34;13.55;;;10.50;;
70301;SDS011;57706;56.326;43.882;2022-07-29T13:22:01;15.98;;;12.98;;
70301;SDS011;57706;56.326;43.882;2022-07-29T13:24:27;14.85;;;12.98;;
70301;SDS011;57706;56.326;43.882;2022-07-29T13:26:53;15.73;;;14.05;;
70301;SDS011;57706;56.326;43.882;2022-07-29T13:29:19;15.70;;;13.10;;
70301;SDS011;57706;56.326;43.882;2022-07-29T13:31:45;15.70;;;12.52;;
70301;SDS011;57706;56.326;43.882;2022-07-29T13:34:11;13.88;;;12.27;;
70301;SDS011;57706;56.326;43.882;2022-07-29T13:36:37;14.43;;;12.93;;
70301;SDS011;57706;56.326;43.882;2022-07-29T13:39:02;14.48;;;12.90;;
70301;SDS011;57706;56.326;43.882;2022-07-29T13:41:29;14.55;;;12.70;;
70301;SDS011;57706;56.326;43.882;2022-07-29T13:43:54;15.07;;;13.15;;
70301;SDS011;57706;56.326;43.882;2022-07-29T13:46:20;16.13;;;14.35;;
70301;SDS011;57706;56.326;43.882;2022-07-29T13:48:46;15.70;;;13.50;;
70301;SDS011;57706;56.326;43.882;2022-07-29T13:51:31;15.35;;;13.43;;
70301;SDS011;57706;56.326;43.882;2022-07-29T13:54:15;17.90;;;13.73;;
70301;SDS011;57706;56.326;43.882;2022-07-29T13:56:41;14.73;;;13.23;;
70301;SDS011;57706;56.326;43.882;2022-07-29T13:59:07;19.27;;;14.50;;
70301;SDS011;57706;56.326;43.882;2022-07-29T14:01:36;16.08;;;14.18;;
70301;SDS011;57706;56.326;43.882;2022-07-29T14:04:02;17.05;;;14.02;;
70301;SDS011;57706;56.326;43.882;2022-07-29T14:06:28;19.65;;;16.17;;
70301;SDS011;57706;56.326;43.882;2022-07-29T14:08:54;19.40;;;14.35;;
70301;SDS011;57706;56.326;43.882;2022-07-29T14:11:20;16.30;;;14.00;;
70301;SDS011;57706;56.326;43.882;2022-07-29T14:13:46;18.00;;;14.07;;
70301;SDS011;57706;56.326;43.882;2022-07-29T14:16:12;20.55;;;14.80;;
70301;SDS011;57706;56.326;43.882;2022-07-29T14:18:38;17.45;;;15.43;;
70301;SDS011;57706;56.326;43.882;2022-07-29T14:21:03;16.88;;;14.02;;
70301;SDS011;57706;56.326;43.882;2022-07-29T14:23:29;15.93;;;13.65;;
70301;SDS011;57706;56.326;43.882;2022-07-29T14:25:55;14.25;;;12.75;;
70301;SDS011;57706;56.326;43.882;2022-07-29T14:28:21;16.60;;;13.18;;
70301;SDS011;57706;56.326;43.882;2022-07-29T14:30:47;15.13;;;13.60;;
70301;SDS011;57706;56.326;43.882;2022-07-29T14:33:13;18.05;;;14.07;;
70301;SDS011;57706;56.326;43.882;2022-07-29T14:35:39;16.15;;;14.43;;
70301;SDS011;57706;56.326;43.882;2022-07-29T14:38:05;15.02;;;11.45;;
70301;SDS011;57706;56.326;43.882;2022-07-29T14:40:30;13.18;;;10.88;;
70301;SDS011;57706;56.326;43.882;2022-07-29T14:42:56;11.10;;;9.18;;
70301;SDS011;57706;56.326;43.882;2022-07-29T14:45:22;11.57;;;9.73;;
70301;SDS011;57706;56.326;43.882;2022-07-29T14:47:48;10.45;;;8.45;;
70301;SDS011;57706;56.326;43.882;2022-07-29T14:50:16;10.60;;;8.65;;
70301;SDS011;57706;56.326;43.882;2022-07-29T14:52:43;9.82;;;8.25;;
70301;SDS011;57706;56.326;43.882;2022-07-29T14:55:09;12.73;;;11.15;;
70301;SDS011;57706;56.326;43.882;2022-07-29T14:57:36;11.98;;;9.48;;
70301;SDS011;57706;56.326;43.882;2022-07-29T15:00:03;11.52;;;10.15;;
70301;SDS011;57706;56.326;43.882;2022-07-29T15:02:32;10.88;;;9.75;;
70301;SDS011;57706;56.326;43.882;2022-07-29T15:04:58;15.70;;;10.57;;
70301;SDS011;57706;56.326;43.882;2022-07-29T15:07:24;12.48;;;11.00;;
70301;SDS011;57706;56.326;43.882;2022-07-29T15:09:49;14.18;;;11.32;;
70301;SDS011;57706;56.326;43.882;2022-07-29T15:12:15;13.88;;;11.75;;
70301;SDS011;57706;56.326;43.882;2022-07-29T15:14:41;14.15;;;12.15;;
70301;SDS011;57706;56.326;43.882;2022-07-29T15:17:07;12.63;;;10.77;;
70301;SDS011;57706;56.326;43.882;2022-07-29T15:19:33;13.70;;;11.50;;
70301;SDS011;57706;56.326;43.882;2022-07-29T15:21:59;15.32;;;10.82;;
70301;SDS011;57706;56.326;43.882;2022-07-29T15:24:25;13.70;;;9.52;;
70301;SDS011;57706;56.326;43.882;2022-07-29T15:26:51;13.32;;;11.40;;
70301;SDS011;57706;56.326;43.882;2022-07-29T15:29:17;15.13;;;11.32;;
70301;SDS011;57706;56.326;43.882;2022-07-29T15:31:43;17.45;;;14.23;;
70301;SDS011;57706;56.326;43.882;2022-07-29T15:34:09;20.25;;;14.00;;
70301;SDS011;57706;56.326;43.882;2022-07-29T15:36:35;15.45;;;13.77;;
70301;SDS011;57706;56.326;43.882;2022-07-29T15:39:01;19.33;;;14.10;;
70301;SDS011;57706;56.326;43.882;2022-07-29T15:41:27;18.30;;;14.43;;
70301;SDS011;57706;56.326;43.882;2022-07-29T15:43:52;20.08;;;13.98;;
70301;SDS011;57706;56.326;43.882;2022-07-29T15:46:18;22.02;;;14.68;;
70301;SDS011;57706;56.326;43.882;2022-07-29T15:49:04;20.40;;;15.32;;
70301;SDS011;57706;56.326;43.882;2022-07-29T15:51:31;20.27;;;15.25;;
70301;SDS011;57706;56.326;43.882;2022-07-29T15:53:57;17.77;;;12.15;;
70301;SDS011;57706;56.326;43.882;2022-07-29T15:56:23;21.25;;;16.05;;
70301;SDS011;57706;56.326;43.882;2022-07-29T15:58:49;22.73;;;15.23;;
70301;SDS011;57706;56.326;43.882;2022-07-29T16:01:16;19.17;;;15.15;;
70301;SDS011;57706;56.326;43.882;2022-07-29T16:03:42;19.88;;;14.82;;
70301;SDS011;57706;56.326;43.882;2022-07-29T16:06:08;18.85;;;12.48;;
70301;SDS011;57706;56.326;43.882;2022-07-29T16:08:34;9.35;;;8.40;;
70301;SDS011;57706;56.326;43.882;2022-07-29T16:11:00;7.03;;;6.32;;
70301;SDS011;57706;56.326;43.882;2022-07-29T16:13:26;7.13;;;6.15;;
70301;SDS011;57706;56.326;43.882;2022-07-29T16:15:52;7.43;;;5.38;;
70301;SDS011;57706;56.326;43.882;2022-07-29T16:18:18;9.23;;;4.93;;
70301;SDS011;57706;56.326;43.882;2022-07-29T16:20:44;5.25;;;4.07;;
70301;SDS011;57706;56.326;43.882;2022-07-29T16:23:10;6.93;;;4.00;;
70301;SDS011;57706;56.326;43.882;2022-07-29T16:25:40;6.97;;;4.22;;
70301;SDS011;57706;56.326;43.882;2022-07-29T16:28:06;7.18;;;4.57;;
70301;SDS011;57706;56.326;43.882;2022-07-29T16:30:33;6.78;;;4.47;;
70301;SDS011;57706;56.326;43.882;2022-07-29T16:32:59;7.47;;;4.70;;
70301;SDS011;57706;56.326;43.882;2022-07-29T16:35:25;5.63;;;4.65;;
70301;SDS011;57706;56.326;43.882;2022-07-29T16:37:51;10.18;;;4.68;;
70301;SDS011;57706;56.326;43.882;2022-07-29T16:40:17;6.90;;;4.28;;
70301;SDS011;57706;56.326;43.882;2022-07-29T16:43:01;9.52;;;5.43;;
70301;SDS011;57706;56.326;43.882;2022-07-29T16:45:27;8.48;;;6.05;;
70301;SDS011;57706;56.326;43.882;2022-07-29T16:47:53;10.18;;;4.53;;
70301;SDS011;57706;56.326;43.882;2022-07-29T16:50:20;8.70;;;5.57;;
70301;SDS011;57706;56.326;43.882;2022-07-29T16:52:46;10.07;;;5.63;;
70301;SDS011;57706;56.326;43.882;2022-07-29T16:55:11;8.43;;;6.88;;
70301;SDS011;57706;56.326;43.882;2022-07-29T16:57:37;9.32;;;6.10;;
70301;SDS011;57706;56.326;43.882;2022-07-29T17:00:04;6.45;;;5.75;;
70301;SDS011;57706;56.326;43.882;2022-07-29T17:02:30;6.65;;;5.10;;
70301;SDS011;57706;56.326;43.882;2022-07-29T17:04:56;10.63;;;5.80;;
70301;SDS011;57706;56.326;43.882;2022-07-29T17:07:23;12.75;;;7.28;;
70301;SDS011;57706;56.326;43.882;2022-07-29T17:09:49;9.02;;;6.57;;
70301;SDS011;57706;56.326;43.882;2022-07-29T17:12:14;10.48;;;7.03;;
70301;SDS011;57706;56.326;43.882;2022-07-29T17:14:40;10.30;;;7.57;;
70301;SDS011;57706;56.326;43.882;2022-07-29T17:17:06;8.25;;;6.68;;
70301;SDS011;57706;56.326;43.882;2022-07-29T17:19:32;9.50;;;6.97;;
70301;SDS011;57706;56.326;43.882;2022-07-29T17:22:03;9.75;;;7.45;;
70301;SDS011;57706;56.326;43.882;2022-07-29T17:24:31;9.15;;;8.15;;
70301;SDS011;57706;56.326;43.882;2022-07-29T17:26:57;10.57;;;7.30;;
70301;SDS011;57706;56.326;43.882;2022-07-29T17:29:23;11.98;;;8.05;;
70301;SDS011;57706;56.326;43.882;2022-07-29T17:31:49;9.73;;;7.85;;
70301;SDS011;57706;56.326;43.882;2022-07-29T17:34:15;11.15;;;7.80;;
70301;SDS011;57706;56.326;43.882;2022-07-29T17:36:41;10.73;;;7.57;;
70301;SDS011;57706;56.326;43.882;2022-07-29T17:39:07;9.85;;;8.02;;
70301;SDS011;57706;56.326;43.882;2022-07-29T17:41:35;9.65;;;8.55;;
70301;SDS011;57706;56.326;43.882;2022-07-29T17:44:05;9.77;;;6.82;;
70301;SDS011;57706;56.326;43.882;2022-07-29T17:46:31;11.57;;;8.70;;
70301;SDS011;57706;56.326;43.882;2022-07-29T17:48:57;19.10;;;9.15;;
70301;SDS011;57706;56.326;43.882;2022-07-29T17:51:25;9.57;;;8.57;;
70301;SDS011;57706;56.326;43.882;2022-07-29T17:53:52;11.48;;;8.68;;
70301;SDS011;57706;56.326;43.882;2022-07-29T17:56:18;11.65;;;9.20;;
70301;SDS011;57706;56.326;43.882;2022-07-29T17:58:44;12.80;;;9.10;;
70301;SDS011;57706;56.326;43.882;2022-07-29T18:01:12;12.50;;;9.15;;
70301;SDS011;57706;56.326;43.882;2022-07-29T18:03:39;12.45;;;9.15;;
70301;SDS011;57706;56.326;43.882;2022-07-29T18:06:05;11.80;;;9.45;;
70301;SDS011;57706;56.326;43.882;2022-07-29T18:08:32;10.63;;;9.02;;
70301;SDS011;57706;56.326;43.882;2022-07-29T18:10:59;12.68;;;9.88;;
70301;SDS011;57706;56.326;43.882;2022-07-29T18:13:25;11.65;;;8.98;;
70301;SDS011;57706;56.326;43.882;2022-07-29T18:15:51;10.45;;;9.32;;
70301;SDS011;57706;56.326;43.882;2022-07-29T18:18:17;10.63;;;9.07;;
70301;SDS011;57706;56.326;43.882;2022-07-29T18:20:43;11.07;;;9.50;;
70301;SDS011;57706;56.326;43.882;2022-07-29T18:23:28;50.40;;;41.13;;
70301;SDS011;57706;56.326;43.882;2022-07-29T18:26:13;11.70;;;8.90;;
70301;SDS011;57706;56.326;43.882;2022-07-29T18:28:39;12.27;;;8.98;;
70301;SDS011;57706;56.326;43.882;2022-07-29T18:31:04;11.40;;;9.10;;
70301;SDS011;57706;56.326;43.882;2022-07-29T18:33:30;11.75;;;8.48;;
70301;SDS011;57706;56.326;43.882;2022-07-29T18:36:15;10.60;;;9.60;;
70301;SDS011;57706;56.326;43.882;2022-07-29T18:39:00;11.73;;;8.55;;
70301;SDS011;57706;56.326;43.882;2022-07-29T18:41:26;9.50;;;8.30;;
70301;SDS011;57706;56.326;43.882;2022-07-29T18:43:52;11.23;;;8.90;;
70301;SDS011;57706;56.326;43.882;2022-07-29T18:46:18;10.48;;;8.88;;
70301;SDS011;57706;56.326;43.882;2022-07-29T18:48:43;10.45;;;8.95;;
70301;SDS011;57706;56.326;43.882;2022-07-29T18:51:09;13.38;;;8.88;;
70301;SDS011;57706;56.326;43.882;2022-07-29T18:53:35;11.10;;;8.23;;
70301;SDS011;57706;56.326;43.882;2022-07-29T18:56:01;8.93;;;8.02;;
70301;SDS011;57706;56.326;43.882;2022-07-29T18:58:27;10.48;;;8.90;;
70301;SDS011;57706;56.326;43.882;2022-07-29T19:00:53;15.60;;;11.63;;
70301;SDS011;57706;56.326;43.882;2022-07-29T19:03:38;13.40;;;9.48;;
70301;SDS011;57706;56.326;43.882;2022-07-29T19:06:03;11.20;;;9.27;;
70301;SDS011;57706;56.326;43.882;2022-07-29T19:08:29;10.38;;;8.65;;
70301;SDS011;57706;56.326;43.882;2022-07-29T19:10:55;8.07;;;7.20;;
70301;SDS011;57706;56.326;43.882;2022-07-29T19:13:21;11.93;;;8.85;;
70301;SDS011;57706;56.326;43.882;2022-07-29T19:15:47;12.27;;;9.25;;
70301;SDS011;57706;56.326;43.882;2022-07-29T19:18:13;12.65;;;8.80;;
70301;SDS011;57706;56.326;43.882;2022-07-29T19:20:38;9.75;;;8.45;;
70301;SDS011;57706;56.326;43.882;2022-07-29T19:23:05;11.20;;;8.93;;
70301;SDS011;57706;56.326;43.882;2022-07-29T19:25:49;10.15;;;8.70;;
70301;SDS011;57706;56.326;43.882;2022-07-29T19:28:15;9.23;;;8.25;;
70301;SDS011;57706;56.326;43.882;2022-07-29T19:30:43;9.45;;;8.43;;
70301;SDS011;57706;56.326;43.882;2022-07-29T19:33:09;12.88;;;7.97;;
70301;SDS011;57706;56.326;43.882;2022-07-29T19:35:36;11.43;;;8.32;;
70301;SDS011;57706;56.326;43.882;2022-07-29T19:38:02;11.70;;;8.38;;
70301;SDS011;57706;56.326;43.882;2022-07-29T19:40:29;12.23;;;9.18;;
70301;SDS011;57706;56.326;43.882;2022-07-29T19:42:56;16.83;;;12.35;;
70301;SDS011;57706;56.326;43.882;2022-07-29T19:45:22;12.82;;;8.77;;
70301;SDS011;57706;56.326;43.882;2022-07-29T19:48:08;9.82;;;8.27;;
70301;SDS011;57706;56.326;43.882;2022-07-29T19:50:34;11.63;;;8.65;;
70301;SDS011;57706;56.326;43.882;2022-07-29T19:53:00;11.40;;;8.85;;
70301;SDS011;57706;56.326;43.882;2022-07-29T19:55:26;10.45;;;8.32;;
70301;SDS011;57706;56.326;43.882;2022-07-29T19:57:52;10.65;;;8.50;;
70301;SDS011;57706;56.326;43.882;2022-07-29T20:00:18;10.90;;;9.07;;
70301;SDS011;57706;56.326;43.882;2022-07-29T20:02:44;12.23;;;8.70;;
70301;SDS011;57706;56.326;43.882;2022-07-29T20:05:11;10.57;;;9.07;;
70301;SDS011;57706;56.326;43.882;2022-07-29T20:07:37;10.60;;;8.45;;
70301;SDS011;57706;56.326;43.882;2022-07-29T20:10:04;10.93;;;9.88;;
70301;SDS011;57706;56.326;43.882;2022-07-29T20:12:31;11.60;;;8.63;;
70301;SDS011;57706;56.326;43.882;2022-07-29T20:14:57;11.32;;;8.95;;
70301;SDS011;57706;56.326;43.882;2022-07-29T20:17:23;13.63;;;9.63;;
70301;SDS011;57706;56.326;43.882;2022-07-29T20:19:49;10.52;;;9.25;;
70301;SDS011;57706;56.326;43.882;2022-07-29T20:22:16;13.23;;;9.70;;
70301;SDS011;57706;56.326;43.882;2022-07-29T20:24:43;11.07;;;9.52;;
70301;SDS011;57706;56.326;43.882;2022-07-29T20:27:09;13.25;;;9.90;;
70301;SDS011;57706;56.326;43.882;2022-07-29T20:29:36;10.50;;;9.40;;
70301;SDS011;57706;56.326;43.882;2022-07-29T20:32:02;12.27;;;8.18;;
70301;SDS011;57706;56.326;43.882;2022-07-29T20:34:30;9.07;;;8.05;;
70301;SDS011;57706;56.326;43.882;2022-07-29T20:36:56;9.27;;;8.02;;
70301;SDS011;57706;56.326;43.882;2022-07-29T20:39:22;13.52;;;9.82;;
70301;SDS011;57706;56.326;43.882;2022-07-29T20:41:48;8.52;;;7.43;;
70301;SDS011;57706;56.326;43.882;2022-07-29T20:44:33;12.55;;;8.90;;
70301;SDS011;57706;56.326;43.882;2022-07-29T20:46:59;10.20;;;8.05;;
70301;SDS011;57706;56.326;43.882;2022-07-29T20:49:25;10.00;;;8.45;;
70301;SDS011;57706;56.326;43.882;2022-07-29T20:51:51;10.43;;;8.13;;
70301;SDS011;57706;56.326;43.882;2022-07-29T20:54:16;8.25;;;6.68;;
70301;SDS011;57706;56.326;43.882;2022-07-29T20:56:42;9.50;;;8.35;;
70301;SDS011;57706;56.326;43.882;2022-07-29T20:59:08;8.80;;;7.85;;
70301;SDS011;57706;56.326;43.882;2022-07-29T21:01:34;9.55;;;7.53;;
70301;SDS011;57706;56.326;43.882;2022-07-29T21:04:19;11.13;;;9.75;;
70301;SDS011;57706;56.326;43.882;2022-07-29T21:06:44;9.15;;;8.27;;
70301;SDS011;57706;56.326;43.882;2022-07-29T21:09:10;9.48;;;8.48;;